Time;durP1;ratioP1;P1;durP2;ratioP2;P2;SDS_P1;SDS_P2;PMS_P1;PMS_P2;Temp;Humidity;BMP_temperature;BMP_pressure;BME280_temperature;BME280_humidity;BME280_pressure;Samples;Min_cycle;Max_cycle;Signal;HPM_P1;HPM_P2
2022/08/30 00:01:01;;;;;;;1999.90;999.90;;;;;;;17.85;70.98;98819.31;4150572;28;20267;-48
2022/08/30 00:03:05;;;;;;;1999.90;999.90;;;;;;;17.79;71.29;98812.16;4138256;28;20272;-49
2022/08/30 00:05:08;;;;;;;1999.90;999.90;;;;;;;17.76;71.20;98811.91;4156808;28;21160;-48
2022/08/30 00:07:10;;;;;;;1999.90;999.90;;;;;;;17.79;71.10;98816.88;4155852;28;20224;-48
2022/08/30 00:09:11;;;;;;;1999.90;999.90;;;;;;;17.78;70.96;98815.22;4151476;28;20208;-48
2022/08/30 00:11:17;;;;;;;1999.90;999.90;;;;;;;17.75;70.96;98807.47;4168830;28;20205;-48
2022/08/30 00:13:19;;;;;;;1999.90;999.90;;;;;;;17.73;71.04;98802.22;4151367;28;20209;-48
2022/08/30 00:15:21;;;;;;;1999.90;999.90;;;;;;;17.73;71.20;98807.75;4168898;28;20204;-50
2022/08/30 00:17:23;;;;;;;1999.90;999.90;;;;;;;17.71;71.24;98811.97;4149215;28;20710;-48
2022/08/30 00:19:25;;;;;;;1999.90;999.90;;;;;;;17.68;70.97;98809.75;4166166;28;20254;-48
2022/08/30 00:21:27;;;;;;;1999.90;999.90;;;;;;;17.66;71.03;98812.00;4153809;28;20324;-49
2022/08/30 00:23:28;;;;;;;1999.90;999.90;;;;;;;17.64;70.77;98814.22;4165019;28;20192;-49
2022/08/30 00:25:30;;;;;;;1999.90;999.90;;;;;;;17.66;70.75;98812.00;4185933;28;20204;-49
2022/08/30 00:27:32;;;;;;;1999.90;999.90;;;;;;;17.67;70.47;98813.63;4168560;28;20593;-49
2022/08/30 00:29:34;;;;;;;1999.90;999.90;;;;;;;17.62;70.71;98813.66;4185276;28;20579;-49
2022/08/30 00:31:36;;;;;;;1999.90;999.90;;;;;;;17.60;70.42;98815.91;4170694;28;20279;-50
2022/08/30 00:33:38;;;;;;;1999.90;999.90;;;;;;;17.54;70.68;98819.81;4144096;28;20618;-49
2022/08/30 00:35:40;;;;;;;1999.90;999.90;;;;;;;17.50;70.78;98821.50;4168519;28;20214;-49
2022/08/30 00:37:43;;;;;;;1999.90;999.90;;;;;;;17.49;71.15;98817.94;4152270;28;20221;-49
2022/08/30 00:39:45;;;;;;;1999.90;999.90;;;;;;;17.45;71.25;98824.31;4160525;28;20275;-49
2022/08/30 00:41:47;;;;;;;1999.90;999.90;;;;;;;17.39;71.89;98819.94;4160162;28;20259;-50
2022/08/30 00:43:49;;;;;;;1999.90;999.90;;;;;;;17.37;71.81;98820.22;4142982;28;20242;-49
2022/08/30 00:45:51;;;;;;;1999.90;999.90;;;;;;;17.40;71.79;98813.28;4152305;28;20208;-50
2022/08/30 00:47:54;;;;;;;1999.90;999.90;;;;;;;17.40;72.10;98814.09;4170084;28;20254;-50
2022/08/30 00:49:56;;;;;;;1999.90;999.90;;;;;;;17.40;71.75;98814.09;4152031;28;20198;-49
2022/08/30 00:51:59;;;;;;;1999.90;999.90;;;;;;;17.34;72.59;98814.41;4159453;28;20208;-50
2022/08/30 00:54:01;;;;;;;1999.90;999.90;;;;;;;17.32;72.59;98811.91;4151217;28;20260;-50
2022/08/30 00:56:03;;;;;;;1999.90;999.90;;;;;;;17.30;72.12;98810.53;4184561;28;20227;-49
2022/08/30 00:58:06;;;;;;;1999.90;999.90;;;;;;;17.25;72.47;98816.13;4166621;28;20232;-49
2022/08/30 01:00:09;;;;;;;1999.90;999.90;;;;;;;17.24;72.40;98823.56;4150424;28;20205;-49
2022/08/30 01:02:11;;;;;;;1999.90;999.90;;;;;;;17.20;72.87;98821.69;4168049;28;20212;-49
2022/08/30 01:04:14;;;;;;;1999.90;999.90;;;;;;;17.20;72.58;98824.44;4153351;28;20287;-49
2022/08/30 01:06:16;;;;;;;1999.90;999.90;;;;;;;17.15;73.58;98821.69;4156619;28;20238;-49
2022/08/30 01:08:21;;;;;;;1999.90;999.90;;;;;;;17.10;73.33;98819.78;4153948;28;20236;-49
2022/08/30 01:10:22;;;;;;;1999.90;999.90;;;;;;;17.09;73.10;98817.28;4152223;28;20205;-49
2022/08/30 01:12:24;;;;;;;1999.90;999.90;;;;;;;17.08;73.06;98812.06;4160964;28;20690;-48
2022/08/30 01:14:27;;;;;;;1999.90;999.90;;;;;;;17.03;73.49;98824.81;4158021;28;20275;-49
2022/08/30 01:16:31;;;;;;;1999.90;999.90;;;;;;;16.99;73.34;98818.16;4169046;28;20255;-49
2022/08/30 01:18:33;;;;;;;1999.90;999.90;;;;;;;16.92;73.08;98816.84;4169893;28;20200;-48
2022/08/30 01:20:40;;;;;;;1999.90;999.90;;;;;;;16.93;72.90;98812.97;4166743;28;20201;-49
2022/08/30 01:22:48;;;;;;;1999.90;999.90;;;;;;;16.88;72.45;98826.81;4152803;28;20213;-49
2022/08/30 01:24:51;;;;;;;1999.90;999.90;;;;;;;16.87;72.26;98819.63;4166029;28;20624;-49
2022/08/30 01:26:53;;;;;;;1999.90;999.90;;;;;;;16.85;72.14;98821.00;4152462;28;20217;-49
2022/08/30 01:28:58;;;;;;;1999.90;999.90;;;;;;;16.85;72.34;98827.38;4167665;28;20628;-49
2022/08/30 01:31:00;;;;;;;1999.90;999.90;;;;;;;16.78;72.53;98829.63;4151129;28;20205;-48
2022/08/30 01:33:03;;;;;;;1999.90;999.90;;;;;;;16.77;72.38;98830.69;4153532;28;20212;-48
2022/08/30 01:35:05;;;;;;;1999.90;999.90;;;;;;;16.79;72.83;98820.22;4150461;28;20228;-49
2022/08/30 01:37:07;;;;;;;1999.90;999.90;;;;;;;16.75;73.27;98821.88;4182145;28;20233;-49
2022/08/30 01:39:10;;;;;;;1999.90;999.90;;;;;;;16.76;72.91;98818.00;4152140;28;20240;-48
2022/08/30 01:41:16;;;;;;;1999.90;999.90;;;;;;;16.78;72.78;98818.56;4169395;28;20212;-49
2022/08/30 01:43:18;;;;;;;1999.90;999.90;;;;;;;16.75;73.04;98810.81;4143324;28;20205;-49
2022/08/30 01:45:19;;;;;;;1999.90;999.90;;;;;;;16.72;73.42;98811.41;4169317;28;20213;-50
2022/08/30 01:47:24;;;;;;;1999.90;999.90;;;;;;;16.70;73.24;98810.03;4150354;28;20224;-48
2022/08/30 01:49:26;;;;;;;1999.90;999.90;;;;;;;16.70;73.17;98812.78;4151463;28;20232;-48
2022/08/30 01:51:29;;;;;;;1999.90;999.90;;;;;;;16.67;73.18;98814.19;4158890;28;20240;-48
2022/08/30 01:53:31;;;;;;;1999.90;999.90;;;;;;;16.66;72.93;98818.06;4155270;28;20209;-50
2022/08/30 01:55:33;;;;;;;1999.90;999.90;;;;;;;16.61;72.97;98815.31;4185212;28;20203;-49
2022/08/30 01:57:35;;;;;;;1999.90;999.90;;;;;;;16.58;72.77;98815.03;4155788;28;20265;-50
2022/08/30 01:59:38;;;;;;;1999.90;999.90;;;;;;;16.55;73.10;98816.41;4171217;28;20203;-48
2022/08/30 02:01:41;;;;;;;1999.90;999.90;;;;;;;16.56;72.96;98809.78;4156068;28;20205;-49
2022/08/30 02:03:44;;;;;;;1999.90;999.90;;;;;;;16.50;73.41;98810.09;4163143;28;20263;-48
2022/08/30 02:05:47;;;;;;;1999.90;999.90;;;;;;;16.48;73.55;98804.84;4156850;28;20213;-48
2022/08/30 02:07:48;;;;;;;1999.90;999.90;;;;;;;16.45;73.68;98805.41;4162625;28;20229;-49
2022/08/30 02:09:51;;;;;;;1999.90;999.90;;;;;;;16.49;73.32;98811.22;4154071;28;20205;-49
2022/08/30 02:11:53;;;;;;;1999.90;999.90;;;;;;;16.51;73.21;98808.97;4162863;28;20259;-48
2022/08/30 02:13:55;;;;;;;1999.90;999.90;;;;;;;16.49;73.36;98800.97;4162645;28;20209;-49
2022/08/30 02:15:57;;;;;;;1999.90;999.90;;;;;;;16.44;73.95;98806.50;4157189;28;20323;-48
2022/08/30 02:17:59;;;;;;;1999.90;999.90;;;;;;;16.45;73.82;98807.34;4153420;28;20411;-49
2022/08/30 02:20:02;;;;;;;1999.90;999.90;;;;;;;16.40;73.95;98808.19;4154479;28;20209;-49
2022/08/30 02:22:05;;;;;;;1999.90;999.90;;;;;;;16.32;74.51;98805.97;4187094;28;20661;-50
2022/08/30 02:24:07;;;;;;;1999.90;999.90;;;;;;;16.29;74.38;98803.75;4187313;28;20735;-49
2022/08/30 02:26:09;;;;;;;1999.90;999.90;;;;;;;16.23;74.88;98802.09;4153410;28;20221;-49
2022/08/30 02:28:13;;;;;;;1999.90;999.90;;;;;;;16.22;74.67;98810.69;4155527;28;20232;-48
2022/08/30 02:30:17;;;;;;;1999.90;999.90;;;;;;;16.25;74.31;98805.44;4153060;28;20209;-48
2022/08/30 02:32:19;;;;;;;1999.90;999.90;;;;;;;16.24;74.45;98809.28;4155105;28;21136;-49
2022/08/30 02:34:21;;;;;;;1999.90;999.90;;;;;;;16.24;74.13;98798.22;4163086;28;20613;-50
2022/08/30 02:36:23;;;;;;;1999.90;999.90;;;;;;;16.19;74.59;98795.50;4147195;28;20265;-48
2022/08/30 02:38:25;;;;;;;1999.90;999.90;;;;;;;16.18;74.66;98793.84;4153952;28;20706;-49
2022/08/30 02:40:27;;;;;;;1999.90;999.90;;;;;;;16.17;74.55;98783.88;4185314;28;20552;-49
2022/08/30 02:42:29;;;;;;;1999.90;999.90;;;;;;;16.16;74.68;98785.00;4155230;28;20287;-49
2022/08/30 02:44:31;;;;;;;1999.90;999.90;;;;;;;16.16;74.74;98785.00;4155291;28;20201;-49
2022/08/30 02:46:33;;;;;;;1999.90;999.90;;;;;;;16.13;74.95;98788.31;4161525;28;20311;-49
2022/08/30 02:48:35;;;;;;;1999.90;999.90;;;;;;;16.15;74.76;98788.88;4162219;28;20299;-49
2022/08/30 02:50:46;;;;;;;1999.90;999.90;;;;;;;16.16;74.22;98792.47;4155274;28;20208;-49
2022/08/30 02:52:48;;;;;;;1999.90;999.90;;;;;;;16.12;74.33;98794.97;4168517;28;20212;-49
2022/08/30 02:54:49;;;;;;;1999.90;999.90;;;;;;;16.09;74.27;98794.69;4161971;28;20267;-49
2022/08/30 02:56:51;;;;;;;1999.90;999.90;;;;;;;16.05;74.27;98794.44;4169674;28;20209;-48
2022/08/30 02:58:53;;;;;;;1999.90;999.90;;;;;;;16.04;74.35;98786.41;4171722;28;20258;-48
2022/08/30 03:00:54;;;;;;;1999.90;999.90;;;;;;;16.03;74.31;98785.56;4154546;28;20196;-49
2022/08/30 03:02:57;;;;;;;1999.90;999.90;;;;;;;16.03;74.39;98785.56;4173643;28;20618;-49
2022/08/30 03:04:59;;;;;;;1999.90;999.90;;;;;;;16.01;74.31;98782.28;4169286;28;20212;-49
2022/08/30 03:07:00;;;;;;;1999.90;999.90;;;;;;;15.97;73.85;98786.69;4171433;28;20216;-50
2022/08/30 03:09:02;;;;;;;1999.90;999.90;;;;;;;15.97;73.67;98786.69;4171162;28;20203;-48
2022/08/30 03:11:04;;;;;;;1999.90;999.90;;;;;;;15.93;73.90;98791.13;4158433;28;20624;-49
2022/08/30 03:13:06;;;;;;;1999.90;999.90;;;;;;;15.93;73.88;98790.28;4157003;28;20220;-48
2022/08/30 03:15:11;;;;;;;1999.90;999.90;;;;;;;15.95;73.77;98794.41;4154067;28;20276;-49
2022/08/30 03:17:13;;;;;;;1999.90;999.90;;;;;;;15.95;73.84;98788.91;4153964;28;20229;-48
2022/08/30 03:19:17;;;;;;;1999.90;999.90;;;;;;;15.95;73.83;98783.38;4169725;28;20365;-49
2022/08/30 03:21:18;;;;;;;1999.90;999.90;;;;;;;15.93;73.78;98791.13;4156011;28;20644;-48
2022/08/30 03:23:20;;;;;;;1999.90;999.90;;;;;;;15.95;73.66;98788.09;4186137;28;20643;-48
2022/08/30 03:25:23;;;;;;;1999.90;999.90;;;;;;;15.93;73.61;98785.59;4161288;28;20205;-48
2022/08/30 03:27:25;;;;;;;1999.90;999.90;;;;;;;15.93;73.41;98785.59;4155311;28;20275;-49
2022/08/30 03:29:28;;;;;;;1999.90;999.90;;;;;;;15.91;73.28;98776.75;4169293;28;20299;-49
2022/08/30 03:31:30;;;;;;;1999.90;999.90;;;;;;;15.90;73.69;98785.34;4161433;28;20710;-49
2022/08/30 03:33:42;;;;;;;1999.90;999.90;;;;;;;15.85;74.05;98777.88;4184630;28;20203;-49
2022/08/30 03:35:43;;;;;;;1999.90;999.90;;;;;;;15.85;73.73;98771.53;4153737;28;20205;-48
2022/08/30 03:37:45;;;;;;;1999.90;999.90;;;;;;;15.82;73.72;98778.44;4161469;28;20228;-50
2022/08/30 03:39:47;;;;;;;1999.90;999.90;;;;;;;15.77;73.97;98772.91;4161674;28;20209;-48
2022/08/30 03:41:49;;;;;;;1999.90;999.90;;;;;;;15.77;73.66;98767.38;4154689;28;20201;-48
2022/08/30 03:43:52;;;;;;;1999.90;999.90;;;;;;;15.76;73.67;98768.50;4185367;28;20302;-49
2022/08/30 03:46:01;;;;;;;1999.90;999.90;;;;;;;15.76;73.69;98768.50;4158269;28;20217;-49
2022/08/30 03:48:03;;;;;;;1999.90;999.90;;;;;;;15.76;73.91;98768.50;4171110;28;20236;-49
2022/08/30 03:50:05;;;;;;;1999.90;999.90;;;;;;;15.72;73.92;98778.44;4155722;28;20256;-48
2022/08/30 03:52:07;;;;;;;1999.90;999.90;;;;;;;15.69;73.69;98776.22;4169094;28;20208;-48
2022/08/30 03:54:09;;;;;;;1999.90;999.90;;;;;;;15.69;73.86;98773.47;4160296;28;20235;-48
2022/08/30 03:56:10;;;;;;;1999.90;999.90;;;;;;;15.67;74.00;98774.84;4151668;28;20259;-49
2022/08/30 03:58:12;;;;;;;1999.90;999.90;;;;;;;15.61;74.23;98771.25;4157426;28;20615;-49
2022/08/30 04:00:19;;;;;;;1999.90;999.90;;;;;;;15.56;74.75;98762.97;4154406;28;20211;-48
2022/08/30 04:02:21;;;;;;;1999.90;999.90;;;;;;;15.57;74.53;98763.81;4161099;28;20285;-49
2022/08/30 04:04:23;;;;;;;1999.90;999.90;;;;;;;15.51;74.88;98770.44;4154098;28;20220;-50
2022/08/30 04:06:26;;;;;;;1999.90;999.90;;;;;;;15.47;75.00;98775.69;4169667;28;20267;-50
2022/08/30 04:08:28;;;;;;;1999.90;999.90;;;;;;;15.45;75.07;98772.38;4185653;28;20293;-48
2022/08/30 04:10:30;;;;;;;1999.90;999.90;;;;;;;15.39;75.11;98776.22;4152506;28;20205;-48
2022/08/30 04:12:31;;;;;;;1999.90;999.90;;;;;;;15.44;75.11;98772.66;4184883;28;20208;-49
2022/08/30 04:14:33;;;;;;;1999.90;999.90;;;;;;;15.42;75.56;98772.91;4184183;28;20204;-50
2022/08/30 04:16:35;;;;;;;1999.90;999.90;;;;;;;15.44;75.14;98767.94;4167111;28;20208;-48
2022/08/30 04:18:37;;;;;;;1999.90;999.90;;;;;;;15.42;75.24;98775.66;4152465;28;20240;-49
2022/08/30 04:20:39;;;;;;;1999.90;999.90;;;;;;;15.41;75.19;98781.44;4169045;28;20208;-49
2022/08/30 04:22:41;;;;;;;1999.90;999.90;;;;;;;15.38;75.27;98780.09;4155242;28;20204;-49
2022/08/30 04:24:43;;;;;;;1999.90;999.90;;;;;;;15.35;75.28;98786.13;4167486;28;20748;-49
2022/08/30 04:26:45;;;;;;;1999.90;999.90;;;;;;;15.35;75.14;98788.91;4155011;28;20213;-48
2022/08/30 04:28:46;;;;;;;1999.90;999.90;;;;;;;15.36;75.21;98789.75;4155879;28;20769;-49
2022/08/30 04:30:48;;;;;;;1999.90;999.90;;;;;;;15.34;74.90;98784.50;4169792;28;20407;-50
2022/08/30 04:32:50;;;;;;;1999.90;999.90;;;;;;;15.35;74.74;98790.84;4155120;28;20220;-48
2022/08/30 04:34:58;;;;;;;1999.90;999.90;;;;;;;15.31;74.89;98793.25;4155199;28;20213;-49
2022/08/30 04:37:00;;;;;;;1999.90;999.90;;;;;;;15.32;75.08;98794.13;4171118;28;20231;-49
2022/08/30 04:39:02;;;;;;;1999.90;999.90;;;;;;;15.31;75.09;98797.97;4168841;28;20346;-48
2022/08/30 04:41:19;;;;;;;1999.90;999.90;;;;;;;15.34;74.86;98795.53;4151151;28;20217;-49
2022/08/30 04:43:22;;;;;;;1999.90;999.90;;;;;;;15.31;75.23;98792.44;4169427;28;20267;-49
2022/08/30 04:45:24;;;;;;;1999.90;999.90;;;;;;;15.30;75.39;98791.59;4161110;28;20216;-49
2022/08/30 04:47:25;;;;;;;1999.90;999.90;;;;;;;15.28;75.42;98788.31;4183669;28;20601;-48
2022/08/30 04:49:27;;;;;;;1999.90;999.90;;;;;;;15.29;75.20;98801.00;4155482;28;20212;-48
2022/08/30 04:51:29;;;;;;;1999.90;999.90;;;;;;;15.28;75.57;98793.81;4151105;28;20225;-49
2022/08/30 04:53:31;;;;;;;1999.90;999.90;;;;;;;15.30;75.23;98799.06;4168594;28;20200;-49
2022/08/30 04:55:33;;;;;;;1999.90;999.90;;;;;;;15.30;75.03;98808.16;4160211;28;20201;-49
2022/08/30 04:57:36;;;;;;;1999.90;999.90;;;;;;;15.30;74.96;98808.16;4155317;28;20232;-49
2022/08/30 04:59:38;;;;;;;1999.90;999.90;;;;;;;15.33;74.83;98815.94;4168013;28;20208;-51
2022/08/30 05:01:40;;;;;;;1999.90;999.90;;;;;;;15.30;75.20;98813.66;4159726;28;20721;-49
2022/08/30 05:03:47;;;;;;;1999.90;999.90;;;;;;;15.28;75.63;98810.38;4156820;28;20201;-49
2022/08/30 05:05:50;;;;;;;1999.90;999.90;;;;;;;15.23;76.07;98812.28;4157920;28;20765;-48
2022/08/30 05:07:52;;;;;;;1999.90;999.90;;;;;;;15.24;76.12;98809.25;4158546;28;20219;-49
2022/08/30 05:09:54;;;;;;;1999.90;999.90;;;;;;;15.22;76.05;98805.13;4181605;28;20208;-48
2022/08/30 05:11:55;;;;;;;1999.90;999.90;;;;;;;15.39;75.80;98817.59;4157269;28;20263;-49
2022/08/30 05:13:57;;;;;;;1999.90;999.90;;;;;;;15.29;75.85;98816.72;4153688;28;20205;-49
2022/08/30 05:15:59;;;;;;;1999.90;999.90;;;;;;;15.25;76.00;98815.59;4153825;28;20260;-49
2022/08/30 05:18:02;;;;;;;1999.90;999.90;;;;;;;15.23;76.06;98818.63;4151608;28;20281;-48
2022/08/30 05:20:06;;;;;;;1999.90;999.90;;;;;;;15.31;75.79;98815.31;4168944;28;20676;-49
2022/08/30 05:22:08;;;;;;;1999.90;999.90;;;;;;;15.27;75.56;98811.47;4159078;28;20204;-49
2022/08/30 05:24:10;;;;;;;1999.90;999.90;;;;;;;15.29;75.20;98814.78;4172170;28;20234;-49
2022/08/30 05:26:17;;;;;;;1999.90;999.90;;;;;;;15.35;75.01;98821.19;4151202;28;20209;-50
2022/08/30 05:28:19;;;;;;;1999.90;999.90;;;;;;;15.37;74.54;98814.25;4151059;28;20224;-49
2022/08/30 05:30:27;;;;;;;1999.90;999.90;;;;;;;15.39;74.56;98817.59;4156366;28;20284;-49
2022/08/30 05:32:29;;;;;;;1999.90;999.90;;;;;;;15.42;74.33;98816.22;4151324;28;20267;-48
2022/08/30 05:34:31;;;;;;;1999.90;999.90;;;;;;;15.47;74.88;98808.78;4144549;28;20276;-49
2022/08/30 05:36:35;;;;;;;1999.90;999.90;;;;;;;15.53;75.28;98818.72;4159984;28;20209;-49
2022/08/30 05:38:37;;;;;;;1999.90;999.90;;;;;;;15.61;75.43;98814.56;4148288;28;20283;-49
2022/08/30 05:40:40;;;;;;;1999.90;999.90;;;;;;;15.74;76.50;98814.84;4150593;28;20576;-49
2022/08/30 05:42:44;;;;;;;1999.90;999.90;;;;;;;15.78;75.92;98823.41;4166556;28;20732;-49
2022/08/30 05:44:51;;;;;;;1999.90;999.90;;;;;;;15.88;75.82;98824.25;4151260;28;20209;-49
2022/08/30 05:46:53;;;;;;;1999.90;999.90;;;;;;;15.91;76.52;98828.38;4166800;28;20236;-49
2022/08/30 05:48:55;;;;;;;1999.90;999.90;;;;;;;15.95;75.81;98824.78;4154464;28;20204;-48
2022/08/30 05:51:06;;;;;;;1999.90;999.90;;;;;;;16.05;75.77;98830.31;4154165;28;20216;-49
2022/08/30 05:53:08;;;;;;;1999.90;999.90;;;;;;;16.14;74.97;98825.88;4155600;28;20214;-49
2022/08/30 05:55:10;;;;;;;1999.90;999.90;;;;;;;16.35;75.23;98816.44;4160533;28;20643;-49
2022/08/30 05:57:12;;;;;;;1999.90;999.90;;;;;;;16.53;74.69;98824.19;4152885;28;20272;-48
2022/08/30 05:59:14;;;;;;;1999.90;999.90;;;;;;;16.77;74.36;98829.91;4152337;28;20723;-48
2022/08/30 06:01:21;;;;;;;1999.90;999.90;;;;;;;16.85;73.28;98835.69;4152860;28;20216;-49
2022/08/30 06:03:23;;;;;;;1999.90;999.90;;;;;;;16.89;73.24;98836.75;4182735;28;20204;-48
2022/08/30 06:05:27;;;;;;;1999.90;999.90;;;;;;;16.84;70.79;98836.75;4184323;28;20769;-48
2022/08/30 06:07:34;;;;;;;1999.90;999.90;;;;;;;16.96;70.48;98833.69;4158977;28;20232;-48
2022/08/30 06:09:35;;;;;;;1809.10;914.95;;;;;;;17.02;70.52;98827.84;4155436;28;20569;-48
2022/08/30 06:11:37;;;;;;;1635.38;844.35;;;;;;;17.05;70.26;98835.59;4152060;28;20666;-48
2022/08/30 06:13:39;;;;;;;1999.90;999.90;;;;;;;17.08;70.22;98835.00;4155380;28;20229;-48
2022/08/30 06:15:43;;;;;;;1579.88;811.00;;;;;;;17.22;70.08;98833.28;4155519;28;20205;-48
2022/08/30 06:17:47;;;;;;;1999.90;999.90;;;;;;;17.42;70.63;98833.19;4167650;28;20236;-49
2022/08/30 06:19:48;;;;;;;1999.90;999.90;;;;;;;17.39;69.95;98840.09;4160182;28;20217;-48
2022/08/30 06:21:51;;;;;;;1999.90;999.90;;;;;;;17.59;69.80;98834.44;4151495;28;20213;-49
2022/08/30 06:23:53;;;;;;;1999.90;999.90;;;;;;;17.84;70.02;98837.03;4140894;28;20209;-48
2022/08/30 06:25:55;;;;;;;1999.90;999.90;;;;;;;18.15;68.97;98834.81;4159949;28;20205;-48
2022/08/30 06:27:56;;;;;;;1686.43;907.40;;;;;;;18.36;67.59;98839.09;4168108;28;20274;-48
2022/08/30 06:29:58;;;;;;;1999.90;999.90;;;;;;;18.37;67.77;98835.19;4168572;28;20330;-48
2022/08/30 06:32:00;;;;;;;1839.72;929.60;;;;;;;18.59;67.83;98828.03;4169671;28;20608;-47
2022/08/30 06:34:02;;;;;;;1937.75;999.90;;;;;;;18.55;65.01;98831.69;4157573;28;20765;-48
2022/08/30 06:36:08;;;;;;;1999.90;999.90;;;;;;;18.82;66.11;98832.75;4159829;28;20208;-47
2022/08/30 06:38:10;;;;;;;1999.90;999.90;;;;;;;18.83;65.84;98836.34;4154629;28;20240;-49
2022/08/30 06:40:13;;;;;;;1999.90;999.90;;;;;;;18.98;65.73;98841.72;4153707;28;20631;-49
2022/08/30 06:42:14;;;;;;;1999.90;999.90;;;;;;;18.89;65.91;98837.94;4159571;28;20240;-48
2022/08/30 06:44:16;;;;;;;1999.90;999.90;;;;;;;19.14;65.35;98844.03;4159446;28;20216;-48
2022/08/30 06:46:21;;;;;;;1999.90;999.90;;;;;;;19.18;65.67;98842.28;4185604;28;20687;-47
2022/08/30 06:48:23;;;;;;;1999.90;999.90;;;;;;;19.27;65.10;98845.25;4154524;28;20706;-49
2022/08/30 06:50:25;;;;;;;1999.90;999.90;;;;;;;19.52;63.89;98836.59;4154679;28;20260;-48
2022/08/30 06:52:27;;;;;;;1999.90;999.90;;;;;;;19.66;63.80;98840.25;4159637;28;20212;-48
2022/08/30 06:54:31;;;;;;;1999.90;999.90;;;;;;;19.73;64.12;98847.09;4162853;28;20209;-48
2022/08/30 06:56:33;;;;;;;1999.90;999.90;;;;;;;19.91;63.73;98845.44;4156802;28;20823;-49
2022/08/30 06:58:37;;;;;;;1999.90;999.90;;;;;;;20.22;62.91;98852.13;4160826;28;20228;-48
2022/08/30 07:00:40;;;;;;;1999.90;999.90;;;;;;;20.32;62.28;98846.41;4151395;28;20613;-49
2022/08/30 07:02:43;;;;;;;1999.90;999.90;;;;;;;20.42;61.82;98852.63;4155055;28;20214;-48
2022/08/30 07:04:45;;;;;;;1999.90;999.90;;;;;;;20.48;60.99;98850.56;4171991;28;20212;-49
2022/08/30 07:06:47;;;;;;;1999.90;999.90;;;;;;;20.67;61.37;98854.09;4157683;28;20216;-49
2022/08/30 07:08:49;;;;;;;1999.90;999.90;;;;;;;20.71;60.87;98850.41;4186572;28;20236;-49
2022/08/30 07:10:57;;;;;;;1999.90;999.90;;;;;;;20.95;60.22;98844.66;4151103;28;20502;-49
2022/08/30 07:12:58;;;;;;;1999.90;999.90;;;;;;;20.98;60.65;98855.19;4151689;28;20212;-49
2022/08/30 07:15:02;;;;;;;1999.90;999.90;;;;;;;20.94;59.79;98854.16;4171420;28;20204;-50
2022/08/30 07:19:25;;;;;;;1999.90;999.90;;;;;;;21.15;60.36;98844.25;4170466;28;20233;-48
2022/08/30 07:21:36;;;;;;;1999.90;999.90;;;;;;;21.44;59.24;98850.31;4151698;28;20217;-47
2022/08/30 07:23:38;;;;;;;1999.90;999.90;;;;;;;21.59;59.44;98849.97;4151857;28;20624;-48
2022/08/30 07:25:40;;;;;;;1999.90;999.90;;;;;;;21.42;59.03;98844.22;4171650;28;20586;-48
2022/08/30 07:27:42;;;;;;;1999.90;999.90;;;;;;;21.59;58.87;98844.41;4166367;28;20278;-49
2022/08/30 07:29:44;;;;;;;1999.90;999.90;;;;;;;21.58;58.99;98842.75;4154205;28;20300;-49
2022/08/30 07:31:46;;;;;;;1999.90;999.90;;;;;;;21.76;58.49;98841.78;4151906;28;20224;-49
2022/08/30 07:33:48;;;;;;;1999.90;999.90;;;;;;;21.54;58.48;98841.72;4157559;28;20226;-48
2022/08/30 07:35:50;;;;;;;1999.90;999.90;;;;;;;21.42;57.85;98845.06;4160673;28;20204;-49
2022/08/30 07:37:52;;;;;;;1999.90;999.90;;;;;;;21.21;59.07;98846.63;4168594;28;20317;-48
2022/08/30 07:39:54;;;;;;;1999.90;999.90;;;;;;;21.16;59.28;98849.53;4156006;28;20208;-48
2022/08/30 07:41:56;;;;;;;1999.90;999.90;;;;;;;21.14;60.19;98851.78;4154273;28;20263;-48
2022/08/30 07:43:57;;;;;;;1999.90;999.90;;;;;;;21.24;59.94;98848.78;4171811;28;20208;-48
2022/08/30 07:46:05;;;;;;;1999.90;999.90;;;;;;;21.42;59.02;98852.56;4169752;28;20590;-48
2022/08/30 07:48:07;;;;;;;1999.90;999.90;;;;;;;21.55;59.83;98843.38;4169871;28;20285;-49
2022/08/30 07:50:08;;;;;;;1999.90;999.90;;;;;;;21.77;57.96;98851.81;4156827;28;20208;-49
2022/08/30 07:52:10;;;;;;;1999.90;999.90;;;;;;;21.98;57.85;98853.78;4170545;28;20671;-48
2022/08/30 07:54:12;;;;;;;1999.90;999.90;;;;;;;22.34;57.41;98856.53;4156706;28;20208;-49
2022/08/30 07:56:14;;;;;;;1999.90;999.90;;;;;;;;;;4154480;28;20239;-50
2022/08/30 07:58:15;;;;;;;1999.90;999.90;;;;;;;22.06;57.25;98847.47;4168635;28;20290;-48
2022/08/30 08:00:17;;;;;;;1999.90;999.90;;;;;;;22.40;56.54;98849.66;4156045;28;20271;-48
2022/08/30 08:02:19;;;;;;;1999.90;999.90;;;;;;;22.49;56.62;98845.00;4157429;28;20258;-48
2022/08/30 08:04:21;;;;;;;1999.90;999.90;;;;;;;22.71;56.55;98856.13;4171031;28;20482;-48
2022/08/30 08:06:23;;;;;;;1999.90;999.90;;;;;;;22.97;56.16;98860.69;4154836;28;20204;-49
2022/08/30 08:08:25;;;;;;;1999.90;999.90;;;;;;;23.43;55.46;98855.44;4152311;28;20224;-48
2022/08/30 08:10:26;;;;;;;1999.90;999.90;;;;;;;23.41;53.76;98848.53;4154240;28;20583;-49
2022/08/30 08:12:29;;;;;;;1999.90;999.90;;;;;;;23.08;53.90;98855.63;4169452;28;20239;-49
2022/08/30 08:14:31;;;;;;;1999.90;999.90;;;;;;;22.81;53.42;98855.84;4171091;28;20207;-48
2022/08/30 08:16:34;;;;;;;1999.90;999.90;;;;;;;22.49;54.14;98847.78;4153443;28;20204;-48
2022/08/30 08:18:36;;;;;;;1999.90;999.90;;;;;;;22.67;55.01;98850.38;4158187;28;20224;-48
2022/08/30 08:20:38;;;;;;;1999.90;999.90;;;;;;;23.28;54.12;98850.31;4170202;28;20230;-49
2022/08/30 08:22:40;;;;;;;1999.90;999.90;;;;;;;23.83;53.65;98845.00;4151862;28;20201;-48
2022/08/30 08:24:42;;;;;;;1999.90;999.90;;;;;;;23.97;53.10;98846.50;4153648;28;20200;-49
2022/08/30 08:26:43;;;;;;;1999.90;999.90;;;;;;;23.90;51.01;98845.38;4160973;28;20243;-50
2022/08/30 08:28:46;;;;;;;1999.90;999.90;;;;;;;24.25;51.71;98843.03;4169634;28;20200;-49
2022/08/30 08:30:48;;;;;;;1999.90;999.90;;;;;;;23.83;50.29;98841.06;4161084;28;20251;-48
2022/08/30 08:32:51;;;;;;;1999.90;999.90;;;;;;;24.07;51.36;98846.19;4155032;28;20275;-48
2022/08/30 08:34:53;;;;;;;1999.90;999.90;;;;;;;23.70;50.62;98849.56;4166676;28;20707;-48
2022/08/30 08:36:55;;;;;;;1999.90;999.90;;;;;;;23.76;50.25;98847.47;4155235;28;20244;-48
2022/08/30 08:38:57;;;;;;;1999.90;999.90;;;;;;;23.77;50.73;98849.91;4153147;28;20229;-48
2022/08/30 08:41:09;;;;;;;1999.90;999.90;;;;;;;23.99;50.73;98844.22;4159957;28;20200;-48
2022/08/30 08:43:15;;;;;;;1999.90;999.90;;;;;;;23.73;50.57;98839.72;4159718;28;20243;-48
2022/08/30 08:45:23;;;;;;;1999.90;999.90;;;;;;;24.57;51.14;98845.31;4186092;28;20207;-48
2022/08/30 08:47:54;;;;;;;1999.90;999.90;;;;;;;24.68;50.16;98846.63;4159374;28;20593;-48
2022/08/30 08:49:58;;;;;;;1999.90;999.90;;;;;;;24.67;48.68;98850.53;4162445;28;20570;-48
2022/08/30 08:54:31;;;;;;;1999.90;999.90;;;;;;;24.97;48.07;98848.63;4170921;28;20200;-48
2022/08/30 08:56:33;;;;;;;1999.90;999.90;;;;;;;24.85;48.07;98843.75;4154057;28;20200;-48
2022/08/30 08:58:45;;;;;;;1999.90;999.90;;;;;;;25.01;48.61;98838.41;4153289;28;20224;-49
2022/08/30 09:00:47;;;;;;;1999.90;999.90;;;;;;;24.96;48.83;98845.03;4184863;28;20207;-48
2022/08/30 09:03:00;;;;;;;1999.90;999.90;;;;;;;25.09;48.31;98835.59;4155531;28;20212;-48
2022/08/30 09:05:02;;;;;;;1999.90;999.90;;;;;;;24.91;47.88;98833.16;4185567;28;20203;-48
2022/08/30 09:07:14;;;;;;;1999.90;999.90;;;;;;;24.97;47.84;98821.47;4155050;28;20238;-49
2022/08/30 09:09:20;;;;;;;1999.90;999.90;;;;;;;25.20;47.77;98831.22;4151588;28;22071;-49
2022/08/30 09:11:29;;;;;;;1999.90;999.90;;;;;;;25.95;48.07;98824.69;4186849;28;20219;-49